sensor_id;sensor_type;location;lat;lon;timestamp;temperature;humidity
14000;DHT22;7075;53.574;10.054;2023-01-08T00:01:16;9.40;99.90
14000;DHT22;7075;53.574;10.054;2023-01-08T00:03:41;9.40;99.90
14000;DHT22;7075;53.574;10.054;2023-01-08T00:06:10;9.40;99.90
14000;DHT22;7075;53.574;10.054;2023-01-08T00:08:37;9.40;99.90
14000;DHT22;7075;53.574;10.054;2023-01-08T00:11:02;9.40;99.90
14000;DHT22;7075;53.574;10.054;2023-01-08T00:13:28;9.30;99.90
14000;DHT22;7075;53.574;10.054;2023-01-08T00:15:54;9.30;99.90
14000;DHT22;7075;53.574;10.054;2023-01-08T00:18:20;9.30;99.90
14000;DHT22;7075;53.574;10.054;2023-01-08T00:20:47;9.30;99.90
14000;DHT22;7075;53.574;10.054;2023-01-08T00:23:14;9.30;99.90
14000;DHT22;7075;53.574;10.054;2023-01-08T00:25:40;9.30;99.90
14000;DHT22;7075;53.574;10.054;2023-01-08T00:28:06;9.30;99.90
14000;DHT22;7075;53.574;10.054;2023-01-08T00:30:31;9.30;99.90
14000;DHT22;7075;53.574;10.054;2023-01-08T00:32:57;9.30;99.90
14000;DHT22;7075;53.574;10.054;2023-01-08T00:35:23;9.30;99.90
14000;DHT22;7075;53.574;10.054;2023-01-08T00:37:48;9.30;99.90
14000;DHT22;7075;53.574;10.054;2023-01-08T00:40:14;9.30;99.90
14000;DHT22;7075;53.574;10.054;2023-01-08T00:42:40;9.30;99.90
14000;DHT22;7075;53.574;10.054;2023-01-08T00:45:06;9.30;99.90
14000;DHT22;7075;53.574;10.054;2023-01-08T00:47:32;9.40;99.90
14000;DHT22;7075;53.574;10.054;2023-01-08T00:49:58;9.40;99.90
14000;DHT22;7075;53.574;10.054;2023-01-08T00:52:24;9.40;99.90
14000;DHT22;7075;53.574;10.054;2023-01-08T00:54:49;9.40;99.90
14000;DHT22;7075;53.574;10.054;2023-01-08T00:57:15;9.40;99.90
14000;DHT22;7075;53.574;10.054;2023-01-08T00:59:40;9.40;99.90
14000;DHT22;7075;53.574;10.054;2023-01-08T01:02:06;9.40;99.90
14000;DHT22;7075;53.574;10.054;2023-01-08T01:04:32;9.40;99.90
14000;DHT22;7075;53.574;10.054;2023-01-08T01:06:58;9.40;99.90
14000;DHT22;7075;53.574;10.054;2023-01-08T01:09:23;9.40;99.90
14000;DHT22;7075;53.574;10.054;2023-01-08T01:11:49;9.30;99.90
14000;DHT22;7075;53.574;10.054;2023-01-08T01:14:15;9.20;99.90
14000;DHT22;7075;53.574;10.054;2023-01-08T01:16:41;9.20;99.90
14000;DHT22;7075;53.574;10.054;2023-01-08T01:19:07;9.20;99.90
14000;DHT22;7075;53.574;10.054;2023-01-08T01:21:33;9.20;99.90
14000;DHT22;7075;53.574;10.054;2023-01-08T01:24:02;9.20;99.90
14000;DHT22;7075;53.574;10.054;2023-01-08T01:26:29;9.20;99.90
14000;DHT22;7075;53.574;10.054;2023-01-08T01:28:56;9.30;99.90
14000;DHT22;7075;53.574;10.054;2023-01-08T01:31:23;9.30;99.90
14000;DHT22;7075;53.574;10.054;2023-01-08T01:33:49;9.30;99.90
14000;DHT22;7075;53.574;10.054;2023-01-08T01:36:17;9.30;99.90
14000;DHT22;7075;53.574;10.054;2023-01-08T01:38:46;9.30;99.90
14000;DHT22;7075;53.574;10.054;2023-01-08T01:43:43;9.30;99.90
14000;DHT22;7075;53.574;10.054;2023-01-08T01:46:20;9.40;99.90
14000;DHT22;7075;53.574;10.054;2023-01-08T01:48:50;9.40;99.90
14000;DHT22;7075;53.574;10.054;2023-01-08T01:51:18;9.40;99.90
14000;DHT22;7075;53.574;10.054;2023-01-08T01:53:44;9.50;99.90
14000;DHT22;7075;53.574;10.054;2023-01-08T01:56:10;9.50;99.90
14000;DHT22;7075;53.574;10.054;2023-01-08T01:58:36;9.50;99.90
14000;DHT22;7075;53.574;10.054;2023-01-08T02:01:05;9.50;99.90
14000;DHT22;7075;53.574;10.054;2023-01-08T02:03:38;9.50;99.90
14000;DHT22;7075;53.574;10.054;2023-01-08T02:06:33;9.50;99.90
14000;DHT22;7075;53.574;10.054;2023-01-08T02:09:16;9.60;99.90
14000;DHT22;7075;53.574;10.054;2023-01-08T02:12:09;9.60;99.90
14000;DHT22;7075;53.574;10.054;2023-01-08T02:28:54;9.70;99.90
14000;DHT22;7075;53.574;10.054;2023-01-08T02:31:22;9.70;99.90
14000;DHT22;7075;53.574;10.054;2023-01-08T02:33:49;9.70;99.90
14000;DHT22;7075;53.574;10.054;2023-01-08T02:39:00;9.70;99.90
14000;DHT22;7075;53.574;10.054;2023-01-08T02:47:44;9.60;99.90
14000;DHT22;7075;53.574;10.054;2023-01-08T02:50:34;9.60;99.90
14000;DHT22;7075;53.574;10.054;2023-01-08T02:53:28;9.60;99.90
14000;DHT22;7075;53.574;10.054;2023-01-08T02:56:03;9.60;99.90
14000;DHT22;7075;53.574;10.054;2023-01-08T02:58:31;9.60;99.90
14000;DHT22;7075;53.574;10.054;2023-01-08T03:01:00;9.50;99.90
14000;DHT22;7075;53.574;10.054;2023-01-08T03:03:27;9.40;99.90
14000;DHT22;7075;53.574;10.054;2023-01-08T03:06:02;9.50;99.90
14000;DHT22;7075;53.574;10.054;2023-01-08T03:08:29;9.50;99.90
14000;DHT22;7075;53.574;10.054;2023-01-08T03:11:03;9.40;99.90
14000;DHT22;7075;53.574;10.054;2023-01-08T03:16:08;9.50;99.90
14000;DHT22;7075;53.574;10.054;2023-01-08T03:18:40;9.50;99.90
14000;DHT22;7075;53.574;10.054;2023-01-08T03:21:08;9.50;99.90
14000;DHT22;7075;53.574;10.054;2023-01-08T03:23:36;9.50;99.90
14000;DHT22;7075;53.574;10.054;2023-01-08T03:26:04;9.50;99.90
14000;DHT22;7075;53.574;10.054;2023-01-08T03:28:35;9.60;99.90
14000;DHT22;7075;53.574;10.054;2023-01-08T03:31:02;9.60;99.90
14000;DHT22;7075;53.574;10.054;2023-01-08T03:33:29;9.60;99.90
14000;DHT22;7075;53.574;10.054;2023-01-08T03:35:58;9.60;99.90
14000;DHT22;7075;53.574;10.054;2023-01-08T03:38:27;9.60;99.90
14000;DHT22;7075;53.574;10.054;2023-01-08T03:41:00;9.60;99.90
14000;DHT22;7075;53.574;10.054;2023-01-08T03:43:26;9.60;99.90
14000;DHT22;7075;53.574;10.054;2023-01-08T03:45:57;9.50;99.90
14000;DHT22;7075;53.574;10.054;2023-01-08T03:48:24;9.50;99.90
14000;DHT22;7075;53.574;10.054;2023-01-08T03:50:50;9.50;99.90
14000;DHT22;7075;53.574;10.054;2023-01-08T03:53:16;9.50;99.90
14000;DHT22;7075;53.574;10.054;2023-01-08T03:55:42;9.40;99.90
14000;DHT22;7075;53.574;10.054;2023-01-08T03:58:07;9.40;99.90
14000;DHT22;7075;53.574;10.054;2023-01-08T04:00:33;9.40;99.90
14000;DHT22;7075;53.574;10.054;2023-01-08T04:02:58;9.40;99.90
14000;DHT22;7075;53.574;10.054;2023-01-08T04:05:24;9.40;99.90
14000;DHT22;7075;53.574;10.054;2023-01-08T04:07:50;9.40;99.90
14000;DHT22;7075;53.574;10.054;2023-01-08T04:13:40;9.40;99.90
14000;DHT22;7075;53.574;10.054;2023-01-08T04:16:07;9.40;99.90
14000;DHT22;7075;53.574;10.054;2023-01-08T04:18:33;9.40;99.90
14000;DHT22;7075;53.574;10.054;2023-01-08T04:20:59;9.50;99.90
14000;DHT22;7075;53.574;10.054;2023-01-08T04:23:24;9.50;99.90
14000;DHT22;7075;53.574;10.054;2023-01-08T04:25:51;9.50;99.90
14000;DHT22;7075;53.574;10.054;2023-01-08T04:28:16;9.50;99.90
14000;DHT22;7075;53.574;10.054;2023-01-08T04:30:42;9.50;99.90
14000;DHT22;7075;53.574;10.054;2023-01-08T04:33:07;9.50;99.90
14000;DHT22;7075;53.574;10.054;2023-01-08T04:35:33;9.60;99.90
14000;DHT22;7075;53.574;10.054;2023-01-08T04:37:59;9.60;99.90
14000;DHT22;7075;53.574;10.054;2023-01-08T04:40:26;9.60;99.90
14000;DHT22;7075;53.574;10.054;2023-01-08T04:42:51;9.60;99.90
14000;DHT22;7075;53.574;10.054;2023-01-08T04:45:17;9.60;99.90
14000;DHT22;7075;53.574;10.054;2023-01-08T04:47:42;9.70;99.90
14000;DHT22;7075;53.574;10.054;2023-01-08T04:50:08;9.70;99.90
14000;DHT22;7075;53.574;10.054;2023-01-08T04:52:34;9.70;99.90
14000;DHT22;7075;53.574;10.054;2023-01-08T04:55:00;9.70;99.90
14000;DHT22;7075;53.574;10.054;2023-01-08T04:57:25;9.80;99.90
14000;DHT22;7075;53.574;10.054;2023-01-08T04:59:51;9.80;99.90
14000;DHT22;7075;53.574;10.054;2023-01-08T05:02:16;9.80;99.90
14000;DHT22;7075;53.574;10.054;2023-01-08T05:04:42;9.80;99.90
14000;DHT22;7075;53.574;10.054;2023-01-08T05:07:07;9.80;99.90
14000;DHT22;7075;53.574;10.054;2023-01-08T05:09:33;9.80;99.90
14000;DHT22;7075;53.574;10.054;2023-01-08T05:11:59;9.80;99.90
14000;DHT22;7075;53.574;10.054;2023-01-08T05:14:24;9.80;99.90
14000;DHT22;7075;53.574;10.054;2023-01-08T05:16:50;9.80;99.90
14000;DHT22;7075;53.574;10.054;2023-01-08T05:19:15;9.80;99.90
14000;DHT22;7075;53.574;10.054;2023-01-08T05:21:41;9.80;99.90
14000;DHT22;7075;53.574;10.054;2023-01-08T05:24:06;9.80;99.90
14000;DHT22;7075;53.574;10.054;2023-01-08T05:26:33;9.80;99.90
14000;DHT22;7075;53.574;10.054;2023-01-08T05:28:59;9.80;99.90
14000;DHT22;7075;53.574;10.054;2023-01-08T05:31:25;9.80;99.90
14000;DHT22;7075;53.574;10.054;2023-01-08T05:33:51;9.80;99.90
14000;DHT22;7075;53.574;10.054;2023-01-08T05:36:16;9.80;99.90
14000;DHT22;7075;53.574;10.054;2023-01-08T05:38:42;9.80;99.90
14000;DHT22;7075;53.574;10.054;2023-01-08T05:41:09;9.80;99.90
14000;DHT22;7075;53.574;10.054;2023-01-08T05:43:35;9.80;99.90
14000;DHT22;7075;53.574;10.054;2023-01-08T05:46:01;9.80;99.90
14000;DHT22;7075;53.574;10.054;2023-01-08T05:48:32;9.80;99.90
14000;DHT22;7075;53.574;10.054;2023-01-08T05:50:57;9.80;99.90
14000;DHT22;7075;53.574;10.054;2023-01-08T05:53:23;9.80;99.90
14000;DHT22;7075;53.574;10.054;2023-01-08T05:55:48;9.70;99.90
14000;DHT22;7075;53.574;10.054;2023-01-08T05:58:15;9.70;99.90
14000;DHT22;7075;53.574;10.054;2023-01-08T06:00:43;9.80;99.90
14000;DHT22;7075;53.574;10.054;2023-01-08T06:03:09;9.80;99.90
14000;DHT22;7075;53.574;10.054;2023-01-08T06:05:35;9.80;99.90
14000;DHT22;7075;53.574;10.054;2023-01-08T06:08:01;9.80;99.90
14000;DHT22;7075;53.574;10.054;2023-01-08T06:10:27;9.80;99.90
14000;DHT22;7075;53.574;10.054;2023-01-08T06:12:53;9.80;99.90
14000;DHT22;7075;53.574;10.054;2023-01-08T06:15:18;9.80;99.90
14000;DHT22;7075;53.574;10.054;2023-01-08T06:17:44;9.80;99.90
14000;DHT22;7075;53.574;10.054;2023-01-08T06:20:10;9.90;99.90
14000;DHT22;7075;53.574;10.054;2023-01-08T06:22:35;9.90;99.90
14000;DHT22;7075;53.574;10.054;2023-01-08T06:25:03;9.90;99.90
14000;DHT22;7075;53.574;10.054;2023-01-08T06:27:28;9.90;99.90
14000;DHT22;7075;53.574;10.054;2023-01-08T06:29:54;9.80;99.90
14000;DHT22;7075;53.574;10.054;2023-01-08T06:32:20;9.80;99.90
14000;DHT22;7075;53.574;10.054;2023-01-08T06:34:45;9.70;99.90
14000;DHT22;7075;53.574;10.054;2023-01-08T06:37:11;9.70;99.90
14000;DHT22;7075;53.574;10.054;2023-01-08T06:39:37;9.80;99.90
14000;DHT22;7075;53.574;10.054;2023-01-08T06:42:02;9.70;99.90
14000;DHT22;7075;53.574;10.054;2023-01-08T06:44:28;9.70;99.90
14000;DHT22;7075;53.574;10.054;2023-01-08T06:46:53;9.70;99.90
14000;DHT22;7075;53.574;10.054;2023-01-08T06:49:19;9.70;99.90
14000;DHT22;7075;53.574;10.054;2023-01-08T06:51:46;9.70;99.90
14000;DHT22;7075;53.574;10.054;2023-01-08T06:54:12;9.70;99.90
14000;DHT22;7075;53.574;10.054;2023-01-08T06:56:37;9.80;99.90
14000;DHT22;7075;53.574;10.054;2023-01-08T06:59:03;9.80;99.90
14000;DHT22;7075;53.574;10.054;2023-01-08T07:01:28;9.80;99.90
14000;DHT22;7075;53.574;10.054;2023-01-08T07:03:54;9.80;99.90
14000;DHT22;7075;53.574;10.054;2023-01-08T07:06:21;9.80;99.90
14000;DHT22;7075;53.574;10.054;2023-01-08T07:08:47;9.80;99.90
14000;DHT22;7075;53.574;10.054;2023-01-08T07:11:13;9.80;99.90
14000;DHT22;7075;53.574;10.054;2023-01-08T07:13:40;9.80;99.90
14000;DHT22;7075;53.574;10.054;2023-01-08T07:16:10;9.80;99.90
14000;DHT22;7075;53.574;10.054;2023-01-08T07:18:36;9.70;99.90
14000;DHT22;7075;53.574;10.054;2023-01-08T07:21:03;9.70;99.90
14000;DHT22;7075;53.574;10.054;2023-01-08T07:23:29;9.80;99.90
14000;DHT22;7075;53.574;10.054;2023-01-08T07:26:01;9.70;99.90
14000;DHT22;7075;53.574;10.054;2023-01-08T07:28:28;9.70;99.90
14000;DHT22;7075;53.574;10.054;2023-01-08T07:30:53;9.70;99.90
14000;DHT22;7075;53.574;10.054;2023-01-08T07:33:19;9.70;99.90
14000;DHT22;7075;53.574;10.054;2023-01-08T07:35:54;9.70;99.90
14000;DHT22;7075;53.574;10.054;2023-01-08T07:38:21;9.80;99.90
14000;DHT22;7075;53.574;10.054;2023-01-08T07:40:46;9.80;99.90
14000;DHT22;7075;53.574;10.054;2023-01-08T07:43:12;9.80;99.90
14000;DHT22;7075;53.574;10.054;2023-01-08T07:45:38;9.80;99.90
14000;DHT22;7075;53.574;10.054;2023-01-08T07:48:04;9.80;99.90
14000;DHT22;7075;53.574;10.054;2023-01-08T07:50:31;9.80;99.90
14000;DHT22;7075;53.574;10.054;2023-01-08T07:53:00;9.80;99.90
14000;DHT22;7075;53.574;10.054;2023-01-08T07:55:28;9.80;99.90
14000;DHT22;7075;53.574;10.054;2023-01-08T07:57:54;9.70;99.90
14000;DHT22;7075;53.574;10.054;2023-01-08T08:00:20;9.80;99.90
14000;DHT22;7075;53.574;10.054;2023-01-08T08:02:46;9.80;99.90
14000;DHT22;7075;53.574;10.054;2023-01-08T08:05:12;9.80;99.90
14000;DHT22;7075;53.574;10.054;2023-01-08T08:07:37;9.80;99.90
14000;DHT22;7075;53.574;10.054;2023-01-08T08:10:04;9.80;99.90
14000;DHT22;7075;53.574;10.054;2023-01-08T08:12:30;9.80;99.90
14000;DHT22;7075;53.574;10.054;2023-01-08T08:14:55;9.70;99.90
14000;DHT22;7075;53.574;10.054;2023-01-08T08:17:21;9.70;99.90
14000;DHT22;7075;53.574;10.054;2023-01-08T08:19:47;9.60;99.90
14000;DHT22;7075;53.574;10.054;2023-01-08T08:22:12;9.60;99.90
14000;DHT22;7075;53.574;10.054;2023-01-08T08:24:38;9.50;99.90
14000;DHT22;7075;53.574;10.054;2023-01-08T08:27:04;9.50;99.90
14000;DHT22;7075;53.574;10.054;2023-01-08T08:29:30;9.50;99.90
14000;DHT22;7075;53.574;10.054;2023-01-08T08:31:55;9.50;99.90
14000;DHT22;7075;53.574;10.054;2023-01-08T08:34:21;9.50;99.90
14000;DHT22;7075;53.574;10.054;2023-01-08T08:36:47;9.50;99.90
14000;DHT22;7075;53.574;10.054;2023-01-08T08:39:14;9.60;99.90
14000;DHT22;7075;53.574;10.054;2023-01-08T08:41:39;9.60;99.90
14000;DHT22;7075;53.574;10.054;2023-01-08T08:44:06;9.60;99.90
14000;DHT22;7075;53.574;10.054;2023-01-08T08:46:33;9.60;99.90
14000;DHT22;7075;53.574;10.054;2023-01-08T08:48:58;9.60;99.90
14000;DHT22;7075;53.574;10.054;2023-01-08T08:51:24;9.50;99.90
14000;DHT22;7075;53.574;10.054;2023-01-08T08:53:51;9.60;99.90
14000;DHT22;7075;53.574;10.054;2023-01-08T08:56:17;9.60;99.90
14000;DHT22;7075;53.574;10.054;2023-01-08T08:58:43;9.60;99.90
14000;DHT22;7075;53.574;10.054;2023-01-08T09:01:10;9.70;99.90
14000;DHT22;7075;53.574;10.054;2023-01-08T09:03:37;9.70;99.90
14000;DHT22;7075;53.574;10.054;2023-01-08T09:06:03;9.60;99.90
14000;DHT22;7075;53.574;10.054;2023-01-08T09:08:29;9.50;99.90
14000;DHT22;7075;53.574;10.054;2023-01-08T09:10:56;9.60;99.90
14000;DHT22;7075;53.574;10.054;2023-01-08T09:13:22;9.50;99.90
14000;DHT22;7075;53.574;10.054;2023-01-08T09:15:48;9.60;99.90
14000;DHT22;7075;53.574;10.054;2023-01-08T09:18:15;9.50;99.90
14000;DHT22;7075;53.574;10.054;2023-01-08T09:20:41;9.50;99.90
14000;DHT22;7075;53.574;10.054;2023-01-08T09:23:07;9.50;99.90
14000;DHT22;7075;53.574;10.054;2023-01-08T09:25:33;9.50;99.90
14000;DHT22;7075;53.574;10.054;2023-01-08T09:28:04;9.50;99.90
14000;DHT22;7075;53.574;10.054;2023-01-08T09:30:31;9.50;99.90
14000;DHT22;7075;53.574;10.054;2023-01-08T09:33:01;9.50;99.90
14000;DHT22;7075;53.574;10.054;2023-01-08T09:35:29;9.50;99.90
14000;DHT22;7075;53.574;10.054;2023-01-08T09:37:58;9.50;99.90
14000;DHT22;7075;53.574;10.054;2023-01-08T09:40:36;9.50;99.90
14000;DHT22;7075;53.574;10.054;2023-01-08T09:43:04;9.50;99.90
14000;DHT22;7075;53.574;10.054;2023-01-08T09:45:34;9.50;99.90
14000;DHT22;7075;53.574;10.054;2023-01-08T09:48:04;9.50;99.90
14000;DHT22;7075;53.574;10.054;2023-01-08T09:50:31;9.50;99.90
14000;DHT22;7075;53.574;10.054;2023-01-08T09:52:58;9.50;99.90
14000;DHT22;7075;53.574;10.054;2023-01-08T09:55:27;9.50;99.90
14000;DHT22;7075;53.574;10.054;2023-01-08T09:57:54;9.50;99.90
14000;DHT22;7075;53.574;10.054;2023-01-08T10:00:25;9.60;99.90
14000;DHT22;7075;53.574;10.054;2023-01-08T10:02:53;9.60;99.90
14000;DHT22;7075;53.574;10.054;2023-01-08T10:05:19;9.60;99.90
14000;DHT22;7075;53.574;10.054;2023-01-08T10:07:45;9.60;99.90
14000;DHT22;7075;53.574;10.054;2023-01-08T10:10:21;9.60;99.90
14000;DHT22;7075;53.574;10.054;2023-01-08T10:12:48;9.60;99.90
14000;DHT22;7075;53.574;10.054;2023-01-08T10:15:17;9.60;99.90
14000;DHT22;7075;53.574;10.054;2023-01-08T10:20:18;9.70;99.90
14000;DHT22;7075;53.574;10.054;2023-01-08T10:22:45;9.70;99.90
14000;DHT22;7075;53.574;10.054;2023-01-08T10:25:17;9.60;99.90
14000;DHT22;7075;53.574;10.054;2023-01-08T10:28:00;9.60;99.90
14000;DHT22;7075;53.574;10.054;2023-01-08T10:30:33;9.70;99.90
14000;DHT22;7075;53.574;10.054;2023-01-08T10:36:02;9.70;99.90
14000;DHT22;7075;53.574;10.054;2023-01-08T10:38:40;9.70;99.90
14000;DHT22;7075;53.574;10.054;2023-01-08T10:41:10;9.60;99.90
14000;DHT22;7075;53.574;10.054;2023-01-08T10:43:54;9.70;99.90
14000;DHT22;7075;53.574;10.054;2023-01-08T10:46:30;9.70;99.90
14000;DHT22;7075;53.574;10.054;2023-01-08T10:48:59;9.70;99.90
14000;DHT22;7075;53.574;10.054;2023-01-08T10:51:30;9.60;99.90
14000;DHT22;7075;53.574;10.054;2023-01-08T10:54:22;9.60;99.90
14000;DHT22;7075;53.574;10.054;2023-01-08T10:56:51;9.60;99.90
14000;DHT22;7075;53.574;10.054;2023-01-08T10:59:24;9.60;99.90
14000;DHT22;7075;53.574;10.054;2023-01-08T11:01:53;9.60;99.90
14000;DHT22;7075;53.574;10.054;2023-01-08T11:04:32;9.60;99.90
14000;DHT22;7075;53.574;10.054;2023-01-08T11:07:04;9.70;99.90
14000;DHT22;7075;53.574;10.054;2023-01-08T11:09:33;9.70;99.90
14000;DHT22;7075;53.574;10.054;2023-01-08T11:11:59;9.60;99.90
14000;DHT22;7075;53.574;10.054;2023-01-08T11:14:32;9.60;99.90
14000;DHT22;7075;53.574;10.054;2023-01-08T11:17:00;9.60;99.90
14000;DHT22;7075;53.574;10.054;2023-01-08T11:19:34;9.60;99.90
14000;DHT22;7075;53.574;10.054;2023-01-08T11:22:23;9.60;99.90
14000;DHT22;7075;53.574;10.054;2023-01-08T11:24:51;9.60;99.90
14000;DHT22;7075;53.574;10.054;2023-01-08T11:27:25;9.60;99.90
14000;DHT22;7075;53.574;10.054;2023-01-08T11:29:57;9.60;99.90
14000;DHT22;7075;53.574;10.054;2023-01-08T11:35:36;9.70;99.90
14000;DHT22;7075;53.574;10.054;2023-01-08T11:38:05;9.90;99.90
14000;DHT22;7075;53.574;10.054;2023-01-08T11:40:58;9.80;99.90
14000;DHT22;7075;53.574;10.054;2023-01-08T11:52:17;10.50;99.90
14000;DHT22;7075;53.574;10.054;2023-01-08T11:54:51;10.90;99.90
14000;DHT22;7075;53.574;10.054;2023-01-08T12:03:30;11.50;99.90
14000;DHT22;7075;53.574;10.054;2023-01-08T12:06:10;11.50;99.90
14000;DHT22;7075;53.574;10.054;2023-01-08T12:08:49;11.60;99.90
14000;DHT22;7075;53.574;10.054;2023-01-08T12:11:30;11.60;99.90
14000;DHT22;7075;53.574;10.054;2023-01-08T12:19:46;11.60;99.90
14000;DHT22;7075;53.574;10.054;2023-01-08T12:33:55;12.20;99.90
14000;DHT22;7075;53.574;10.054;2023-01-08T12:35:57;12.30;99.90
14000;DHT22;7075;53.574;10.054;2023-01-08T12:38:35;12.40;99.90
14000;DHT22;7075;53.574;10.054;2023-01-08T12:41:18;12.30;99.90
14000;DHT22;7075;53.574;10.054;2023-01-08T12:46:16;12.10;99.90
14000;DHT22;7075;53.574;10.054;2023-01-08T12:48:48;11.80;99.90
14000;DHT22;7075;53.574;10.054;2023-01-08T12:51:30;11.70;99.90
14000;DHT22;7075;53.574;10.054;2023-01-08T12:59:47;11.60;99.90
14000;DHT22;7075;53.574;10.054;2023-01-08T13:02:50;11.70;99.90
14000;DHT22;7075;53.574;10.054;2023-01-08T13:07:48;12.10;99.90
14000;DHT22;7075;53.574;10.054;2023-01-08T13:10:47;12.10;99.90
14000;DHT22;7075;53.574;10.054;2023-01-08T13:13:26;12.20;99.90
14000;DHT22;7075;53.574;10.054;2023-01-08T13:15:52;12.00;99.90
14000;DHT22;7075;53.574;10.054;2023-01-08T13:18:23;11.80;99.90
14000;DHT22;7075;53.574;10.054;2023-01-08T13:20:58;11.80;99.90
14000;DHT22;7075;53.574;10.054;2023-01-08T13:23:28;12.00;99.90
14000;DHT22;7075;53.574;10.054;2023-01-08T13:25:58;12.10;99.90
14000;DHT22;7075;53.574;10.054;2023-01-08T13:28:37;12.10;99.90
14000;DHT22;7075;53.574;10.054;2023-01-08T13:33:50;12.40;99.90
14000;DHT22;7075;53.574;10.054;2023-01-08T13:41:43;12.50;99.90
14000;DHT22;7075;53.574;10.054;2023-01-08T13:44:26;12.50;99.90
14000;DHT22;7075;53.574;10.054;2023-01-08T13:46:55;12.50;99.90
14000;DHT22;7075;53.574;10.054;2023-01-08T13:49:29;12.60;99.90
14000;DHT22;7075;53.574;10.054;2023-01-08T13:51:57;12.60;99.90
14000;DHT22;7075;53.574;10.054;2023-01-08T13:54:31;12.40;99.90
14000;DHT22;7075;53.574;10.054;2023-01-08T13:57:19;12.40;99.90
14000;DHT22;7075;53.574;10.054;2023-01-08T13:59:54;12.60;99.90
14000;DHT22;7075;53.574;10.054;2023-01-08T14:02:33;12.50;99.90
14000;DHT22;7075;53.574;10.054;2023-01-08T14:05:24;12.60;99.90
14000;DHT22;7075;53.574;10.054;2023-01-08T14:07:51;12.60;99.90
14000;DHT22;7075;53.574;10.054;2023-01-08T14:10:18;12.60;99.90
14000;DHT22;7075;53.574;10.054;2023-01-08T14:12:46;12.70;99.90
14000;DHT22;7075;53.574;10.054;2023-01-08T14:15:33;12.70;99.90
14000;DHT22;7075;53.574;10.054;2023-01-08T14:18:00;12.60;99.90
14000;DHT22;7075;53.574;10.054;2023-01-08T14:20:36;12.60;99.90
14000;DHT22;7075;53.574;10.054;2023-01-08T14:23:10;12.70;99.90
14000;DHT22;7075;53.574;10.054;2023-01-08T14:25:41;12.70;99.90
14000;DHT22;7075;53.574;10.054;2023-01-08T14:28:17;12.60;99.90
14000;DHT22;7075;53.574;10.054;2023-01-08T14:30:53;12.40;99.90
14000;DHT22;7075;53.574;10.054;2023-01-08T14:33:28;12.20;99.90
14000;DHT22;7075;53.574;10.054;2023-01-08T14:35:56;12.20;99.90
14000;DHT22;7075;53.574;10.054;2023-01-08T14:38:23;12.10;99.90
14000;DHT22;7075;53.574;10.054;2023-01-08T14:41:02;12.10;99.90
14000;DHT22;7075;53.574;10.054;2023-01-08T14:43:39;12.10;99.90
14000;DHT22;7075;53.574;10.054;2023-01-08T14:46:21;12.00;99.90
14000;DHT22;7075;53.574;10.054;2023-01-08T14:48:54;11.80;99.90
14000;DHT22;7075;53.574;10.054;2023-01-08T14:51:24;11.70;99.90
14000;DHT22;7075;53.574;10.054;2023-01-08T14:53:53;11.60;99.90
14000;DHT22;7075;53.574;10.054;2023-01-08T14:56:25;11.50;99.90
14000;DHT22;7075;53.574;10.054;2023-01-08T14:58:54;11.50;99.90
14000;DHT22;7075;53.574;10.054;2023-01-08T15:01:30;11.50;99.90
14000;DHT22;7075;53.574;10.054;2023-01-08T15:04:17;11.50;99.90
14000;DHT22;7075;53.574;10.054;2023-01-08T15:06:46;11.60;99.90
14000;DHT22;7075;53.574;10.054;2023-01-08T15:09:30;11.60;99.90
14000;DHT22;7075;53.574;10.054;2023-01-08T15:11:58;11.60;99.90
14000;DHT22;7075;53.574;10.054;2023-01-08T15:14:26;11.60;99.90
14000;DHT22;7075;53.574;10.054;2023-01-08T15:16:56;11.60;99.90
14000;DHT22;7075;53.574;10.054;2023-01-08T15:19:24;11.70;99.90
14000;DHT22;7075;53.574;10.054;2023-01-08T15:21:56;11.50;99.90
14000;DHT22;7075;53.574;10.054;2023-01-08T15:24:23;11.50;99.90
14000;DHT22;7075;53.574;10.054;2023-01-08T15:26:51;11.40;99.90
14000;DHT22;7075;53.574;10.054;2023-01-08T15:29:28;11.30;99.90
14000;DHT22;7075;53.574;10.054;2023-01-08T15:32:10;11.30;99.90
14000;DHT22;7075;53.574;10.054;2023-01-08T15:34:37;11.40;99.90
14000;DHT22;7075;53.574;10.054;2023-01-08T15:37:02;11.40;99.90
14000;DHT22;7075;53.574;10.054;2023-01-08T15:39:28;11.50;99.90
14000;DHT22;7075;53.574;10.054;2023-01-08T15:41:54;11.50;99.90
14000;DHT22;7075;53.574;10.054;2023-01-08T15:44:39;11.50;99.90
14000;DHT22;7075;53.574;10.054;2023-01-08T15:47:08;11.50;99.90
14000;DHT22;7075;53.574;10.054;2023-01-08T15:49:34;11.40;99.90
14000;DHT22;7075;53.574;10.054;2023-01-08T15:52:00;11.40;99.90
14000;DHT22;7075;53.574;10.054;2023-01-08T15:54:28;11.40;99.90
14000;DHT22;7075;53.574;10.054;2023-01-08T15:56:54;11.40;99.90
14000;DHT22;7075;53.574;10.054;2023-01-08T15:59:20;11.40;99.90
14000;DHT22;7075;53.574;10.054;2023-01-08T16:01:46;11.40;99.90
14000;DHT22;7075;53.574;10.054;2023-01-08T16:04:12;11.50;99.90
14000;DHT22;7075;53.574;10.054;2023-01-08T16:06:37;11.50;99.90
14000;DHT22;7075;53.574;10.054;2023-01-08T16:09:05;11.50;99.90
14000;DHT22;7075;53.574;10.054;2023-01-08T16:11:31;11.50;99.90
14000;DHT22;7075;53.574;10.054;2023-01-08T16:13:56;11.50;99.90
14000;DHT22;7075;53.574;10.054;2023-01-08T16:16:22;11.40;99.90
14000;DHT22;7075;53.574;10.054;2023-01-08T16:18:49;11.30;99.90
14000;DHT22;7075;53.574;10.054;2023-01-08T16:21:16;11.30;99.90
14000;DHT22;7075;53.574;10.054;2023-01-08T16:23:42;11.40;99.90
14000;DHT22;7075;53.574;10.054;2023-01-08T16:26:11;11.30;99.90
14000;DHT22;7075;53.574;10.054;2023-01-08T16:28:37;11.30;99.90
14000;DHT22;7075;53.574;10.054;2023-01-08T16:31:03;11.20;99.90
14000;DHT22;7075;53.574;10.054;2023-01-08T16:33:29;11.10;99.90
14000;DHT22;7075;53.574;10.054;2023-01-08T16:36:02;11.10;99.90
14000;DHT22;7075;53.574;10.054;2023-01-08T16:38:28;11.00;99.90
14000;DHT22;7075;53.574;10.054;2023-01-08T16:40:54;11.00;99.90
14000;DHT22;7075;53.574;10.054;2023-01-08T16:43:25;11.00;99.90
14000;DHT22;7075;53.574;10.054;2023-01-08T16:45:52;11.00;99.90
14000;DHT22;7075;53.574;10.054;2023-01-08T16:48:22;11.00;99.90
14000;DHT22;7075;53.574;10.054;2023-01-08T16:50:49;10.90;99.90
14000;DHT22;7075;53.574;10.054;2023-01-08T16:53:15;10.80;99.90
14000;DHT22;7075;53.574;10.054;2023-01-08T16:55:49;10.90;99.90
14000;DHT22;7075;53.574;10.054;2023-01-08T16:58:16;10.80;99.90
14000;DHT22;7075;53.574;10.054;2023-01-08T17:00:43;10.70;99.90
14000;DHT22;7075;53.574;10.054;2023-01-08T17:03:12;10.80;99.90
14000;DHT22;7075;53.574;10.054;2023-01-08T17:05:38;10.70;99.90
14000;DHT22;7075;53.574;10.054;2023-01-08T17:08:04;10.80;99.90
14000;DHT22;7075;53.574;10.054;2023-01-08T17:10:32;10.80;99.90
14000;DHT22;7075;53.574;10.054;2023-01-08T17:12:58;10.80;99.90
14000;DHT22;7075;53.574;10.054;2023-01-08T17:15:24;10.80;99.90
14000;DHT22;7075;53.574;10.054;2023-01-08T17:17:51;10.80;99.90
14000;DHT22;7075;53.574;10.054;2023-01-08T17:20:17;10.80;99.90
14000;DHT22;7075;53.574;10.054;2023-01-08T17:22:44;10.80;99.90
14000;DHT22;7075;53.574;10.054;2023-01-08T17:25:10;10.80;99.90